Time;durP1;ratioP1;P1;durP2;ratioP2;P2;SDS_P1;SDS_P2;PMS_P1;PMS_P2;Temp;Humidity;BMP_temperature;BMP_pressure;BME280_temperature;BME280_humidity;BME280_pressure;Samples;Min_cycle;Max_cycle;Signal;HPM_P1;HPM_P2
2022/02/04 00:02:43;;;;;;;0.80;0.10;;;;;;;19.82;47.73;100679.50;4972637;28;20046;-59
2022/02/04 00:25:43;;;;;;;1.40;0.25;;;;;;;19.61;47.46;100640.31;4952452;29;20435;-59
2022/02/04 00:28:15;;;;;;;0.57;0.30;;;;;;;19.53;48.37;100628.44;4952928;29;20211;-60
2022/02/04 00:30:46;;;;;;;0.82;0.30;;;;;;;19.51;48.14;100625.03;4952535;29;20030;-59
2022/02/04 00:33:13;;;;;;;1.08;0.10;;;;;;;19.50;47.64;100617.91;4952820;29;20031;-59
2022/02/04 00:38:19;;;;;;;0.47;0.28;;;;;;;19.56;47.57;100610.88;4994090;28;20034;-60
2022/02/04 00:40:48;;;;;;;1.55;0.20;;;;;;;19.48;48.18;100600.88;4993877;28;20033;-60
2022/02/04 00:43:15;;;;;;;1.02;0.30;;;;;;;19.49;48.43;100593.53;4993680;28;20429;-60
2022/02/04 00:51:12;;;;;;;1.13;0.40;;;;;;;19.44;48.35;100591.34;4990960;28;20085;-59
2022/02/04 00:53:50;;;;;;;1.77;0.38;;;;;;;19.43;48.30;100600.56;4990732;28;20129;-59
2022/02/04 01:28:20;;;;;;;2.40;0.50;;;;;;;19.27;48.56;100545.34;4992072;28;20027;-59
2022/02/04 01:30:45;;;;;;;1.83;0.50;;;;;;;19.20;48.23;100528.91;4993548;28;20014;-60
2022/02/04 01:33:12;;;;;;;2.40;0.30;;;;;;;19.27;48.29;100529.00;4993009;28;20439;-59
2022/02/04 01:35:38;;;;;;;0.98;0.30;;;;;;;19.23;48.61;100517.63;4993471;28;20101;-60
2022/02/04 01:38:03;;;;;;;2.08;0.32;;;;;;;19.22;48.14;100521.38;4997040;28;20106;-59
2022/02/04 01:40:29;;;;;;;1.17;0.28;;;;;;;19.21;48.28;100514.25;4996898;28;20034;-59
2022/02/04 01:42:54;;;;;;;0.75;0.25;;;;;;;19.21;47.87;100503.34;4997006;28;20454;-59
2022/02/04 01:45:19;;;;;;;2.58;0.50;;;;;;;19.21;48.04;100498.72;4997751;28;20022;-59
2022/02/04 01:47:56;;;;;;;1.15;0.20;;;;;;;19.15;48.23;100507.66;5016434;28;20026;-60
2022/02/04 01:50:27;;;;;;;1.45;0.32;;;;;;;19.14;48.16;100500.47;5016408;28;20036;-60
2022/02/04 01:52:58;;;;;;;1.70;0.20;;;;;;;19.41;49.85;100496.31;5017169;28;20026;-59
2022/02/04 01:55:24;;;;;;;1.35;0.20;;;;;;;19.68;52.05;100494.03;5036048;28;20036;-60
2022/02/04 01:57:50;;;;;;;0.52;0.20;;;;;;;19.78;53.06;100489.94;5035883;28;20026;-59
2022/02/04 02:00:15;;;;;;;0.68;0.17;;;;;;;19.86;55.41;100486.28;5036081;28;20040;-59
2022/02/04 02:02:41;;;;;;;0.50;0.10;;;;;;;19.91;56.59;100489.28;5036070;28;20040;-59
2022/02/04 02:05:07;;;;;;;1.20;0.20;;;;;;;19.99;57.43;100478.28;5035819;28;20040;-60
2022/02/04 02:07:40;;;;;;;0.60;0.20;;;;;;;20.04;58.61;100478.53;5035969;28;20025;-59
2022/02/04 02:10:10;;;;;;;2.63;0.85;;;;;;;20.09;59.86;100476.09;5036209;28;20028;-59
2022/02/04 02:12:45;;;;;;;1.05;0.20;;;;;;;20.13;60.54;100471.91;5035632;28;20032;-60
2022/02/04 02:15:20;;;;;;;1.35;0.20;;;;;;;20.17;60.95;100477.03;5035424;28;20104;-59
2022/02/04 02:39:31;;;;;;;2.63;0.20;;;;;;;20.51;63.68;100406.22;5035661;28;20025;-59
2022/02/04 02:42:23;;;;;;;1.95;0.73;;;;;;;20.60;63.60;100401.47;5017619;28;20444;-59
2022/02/04 02:55:50;;;;;;;0.57;0.40;;;;;;;20.75;63.73;100382.25;4993146;28;20084;-60
2022/02/04 02:58:23;;;;;;;2.55;0.40;;;;;;;20.79;63.03;100383.53;4993294;28;20038;-59
2022/02/04 03:01:01;;;;;;;0.93;0.30;;;;;;;20.79;62.84;100378.09;4993153;28;20104;-59
2022/02/04 03:03:30;;;;;;;1.45;0.55;;;;;;;20.83;62.97;100368.47;4993012;28;20049;-60
2022/02/04 03:05:56;;;;;;;3.00;0.35;;;;;;;20.83;62.39;100373.94;4993174;28;20463;-59
2022/02/04 03:08:21;;;;;;;0.98;0.40;;;;;;;20.85;62.60;100366.38;4993004;28;20057;-60
2022/02/04 03:10:49;;;;;;;1.10;0.30;;;;;;;20.87;61.81;100372.50;4992838;28;20042;-59
2022/02/04 03:13:15;;;;;;;2.20;0.20;;;;;;;20.89;62.42;100357.56;4992999;28;20034;-59
2022/02/04 03:15:40;;;;;;;0.60;0.47;;;;;;;20.89;61.63;100362.19;4992522;28;20166;-59
2022/02/04 03:18:14;;;;;;;1.42;0.30;;;;;;;20.90;62.06;100350.22;4992859;28;20042;-59
2022/02/04 03:20:49;;;;;;;;;;;;;;;20.91;61.96;100339.09;4993101;28;20116;-59
2022/02/04 03:23:15;;;;;;;1.17;0.57;;;;;;;20.93;61.08;100336.16;4992864;28;19914;-59
2022/02/04 03:25:45;;;;;;;1.13;0.32;;;;;;;20.94;60.99;100348.78;5032495;28;20041;-60
2022/02/04 03:28:15;;;;;;;0.75;0.25;;;;;;;20.95;61.04;100345.00;5034388;28;20021;-59
2022/02/04 03:30:42;;;;;;;1.08;0.40;;;;;;;20.99;60.81;100338.06;5034263;28;20049;-59
2022/02/04 03:33:09;;;;;;;0.65;0.20;;;;;;;20.97;60.77;100338.28;5016588;28;20025;-59
2022/02/04 03:35:34;;;;;;;0.57;0.13;;;;;;;21.00;60.94;100332.44;5016302;28;20048;-60
2022/02/04 03:38:00;;;;;;;0.70;0.38;;;;;;;21.00;61.06;100331.59;5034303;28;20057;-59
2022/02/04 03:40:26;;;;;;;0.93;0.20;;;;;;;21.00;60.31;100320.66;5034120;28;20117;-59
2022/02/04 03:42:52;;;;;;;1.40;0.30;;;;;;;21.02;60.39;100326.78;5034206;28;20056;-59
2022/02/04 03:45:19;;;;;;;0.90;0.20;;;;;;;21.04;60.70;100311.00;5033682;28;20366;-59
2022/02/04 03:47:44;;;;;;;1.50;0.20;;;;;;;21.05;60.31;100312.69;5034245;28;20108;-60
2022/02/04 03:50:10;;;;;;;1.92;0.38;;;;;;;21.08;60.39;100317.75;5034059;28;20388;-59
2022/02/04 03:52:38;;;;;;;1.35;0.43;;;;;;;21.07;59.66;100287.91;5033805;28;20476;-60
2022/02/04 03:55:04;;;;;;;0.82;0.28;;;;;;;21.10;60.04;100288.31;5033914;28;20050;-59
2022/02/04 03:57:29;;;;;;;1.73;0.28;;;;;;;21.09;59.64;100262.03;5033582;28;20041;-59
2022/02/04 03:59:54;;;;;;;2.88;1.02;;;;;;;21.10;59.95;100334.78;5033413;28;20022;-59
2022/02/04 04:02:20;;;;;;;0.93;0.30;;;;;;;21.11;59.54;100305.56;5033752;28;20030;-59
2022/02/04 04:04:45;;;;;;;1.55;0.30;;;;;;;21.10;59.54;100293.78;5033068;28;20224;-59
2022/02/04 04:07:11;;;;;;;1.33;0.30;;;;;;;21.13;59.29;100293.38;5033545;28;20097;-59
2022/02/04 04:09:41;;;;;;;0.65;0.20;;;;;;;21.13;59.50;100298.84;5033443;28;20024;-60
2022/02/04 04:12:07;;;;;;;1.35;0.40;;;;;;;21.13;59.13;100270.66;5033676;28;20133;-60
2022/02/04 04:14:33;;;;;;;0.73;0.20;;;;;;;21.14;58.86;100250.50;5033079;28;20112;-60
2022/02/04 04:16:58;;;;;;;1.15;0.50;;;;;;;21.14;59.49;100256.81;5033444;28;20034;-60
2022/02/04 04:19:24;;;;;;;1.48;0.38;;;;;;;21.13;59.40;100255.13;5033375;28;20465;-59
2022/02/04 04:21:50;;;;;;;1.10;0.50;;;;;;;21.13;58.77;100260.59;5033408;28;20036;-59
2022/02/04 04:24:15;;;;;;;2.00;0.50;;;;;;;21.15;58.81;100257.66;5033414;28;20021;-60
2022/02/04 04:26:41;;;;;;;0.73;0.50;;;;;;;21.15;58.82;100255.75;5033144;28;20021;-60
2022/02/04 04:29:07;;;;;;;0.77;0.20;;;;;;;21.18;59.15;100251.78;5033299;28;20366;-59
2022/02/04 04:31:32;;;;;;;0.60;0.30;;;;;;;21.16;59.42;100243.78;5033042;28;20503;-59
2022/02/04 04:33:57;;;;;;;1.10;0.25;;;;;;;21.17;59.25;100245.50;5033312;28;20025;-59
2022/02/04 04:36:23;;;;;;;0.80;0.20;;;;;;;21.16;58.68;100235.56;5032727;28;20080;-59
2022/02/04 04:38:56;;;;;;;1.35;0.22;;;;;;;21.18;58.92;100233.50;5033097;28;20060;-59
2022/02/04 04:42:09;;;;;;;2.23;0.30;;;;;;;21.18;58.54;100229.94;5033078;28;20109;-59
2022/02/04 05:30:14;;;;;;;0.63;0.30;;;;;;;22.96;51.93;100164.25;5032487;28;20476;-59
2022/02/04 05:32:39;;;;;;;0.80;0.30;;;;;;;22.70;50.92;100156.13;5031884;28;20109;-59
2022/02/04 05:35:07;;;;;;;0.57;0.28;;;;;;;22.62;48.03;100145.38;5032359;28;20382;-59
2022/02/04 05:37:35;;;;;;;1.27;0.30;;;;;;;22.60;46.27;100142.03;5032051;28;20025;-59
2022/02/04 05:40:06;;;;;;;1.27;0.20;;;;;;;22.60;45.19;100139.28;5032349;28;20026;-60
2022/02/04 05:42:35;;;;;;;0.60;0.13;;;;;;;22.60;44.43;100131.06;5032143;28;20025;-59
2022/02/04 05:45:16;;;;;;;1.35;0.43;;;;;;;22.56;43.34;100129.81;5032545;28;20033;-59
2022/02/04 05:47:42;;;;;;;1.23;0.20;;;;;;;22.59;42.97;100132.13;5032055;28;20059;-59
2022/02/04 06:00:46;;;;;;;3.17;0.70;;;;;;;22.63;42.39;100115.03;5032168;28;20029;-60
2022/02/04 06:03:41;;;;;;;0.82;0.30;;;;;;;22.59;42.46;100101.97;5031889;28;20096;-59
2022/02/04 06:14:10;;;;;;;0.37;0.20;;;;;;;22.68;42.33;100062.34;5032228;28;19959;-59
2022/02/04 06:22:19;;;;;;;1.60;0.30;;;;;;;22.62;41.51;100079.63;5033135;28;20044;-59
2022/02/04 06:24:49;;;;;;;0.50;0.10;;;;;;;22.65;41.88;100073.72;5035552;28;20026;-59
2022/02/04 06:27:15;;;;;;;1.33;0.30;;;;;;;22.59;41.94;100080.06;5035577;28;20112;-59
2022/02/04 06:29:42;;;;;;;0.60;0.15;;;;;;;22.62;41.96;100074.16;5035441;28;20396;-59
2022/02/04 06:32:08;;;;;;;1.33;0.13;;;;;;;22.67;41.62;100060.63;5033684;28;20104;-59
2022/02/04 06:34:34;;;;;;;1.45;0.30;;;;;;;22.63;41.38;100070.34;5033450;28;20503;-59
2022/02/04 06:36:59;;;;;;;1.92;0.40;;;;;;;22.62;41.56;100072.25;5035204;28;20041;-59
2022/02/04 06:39:24;;;;;;;0.60;0.30;;;;;;;22.66;41.05;100072.66;5034538;28;20025;-59
2022/02/04 06:41:49;;;;;;;0.57;0.17;;;;;;;22.59;41.06;100075.44;5033317;28;20029;-59
2022/02/04 06:44:15;;;;;;;2.58;0.45;;;;;;;22.65;41.52;100068.22;5032827;28;20022;-59
2022/02/04 06:46:40;;;;;;;0.80;0.20;;;;;;;22.67;41.06;100066.13;5034066;28;20025;-59
2022/02/04 06:49:05;;;;;;;2.90;0.40;;;;;;;22.70;41.31;100055.59;5017367;28;20026;-59
2022/02/04 06:51:30;;;;;;;0.55;0.10;;;;;;;22.69;41.55;100048.41;5035012;28;20033;-59
2022/02/04 06:53:56;;;;;;;1.98;0.30;;;;;;;22.72;41.42;100041.66;5035016;28;20041;-59
2022/02/04 06:56:21;;;;;;;0.90;0.40;;;;;;;22.69;41.95;100028.41;5034973;28;20026;-59
2022/02/04 06:58:47;;;;;;;1.52;0.50;;;;;;;22.75;42.00;100038.47;5035189;28;20026;-59
2022/02/04 07:01:13;;;;;;;1.70;0.52;;;;;;;22.78;41.94;100013.38;5034988;28;20032;-59
2022/02/04 07:03:38;;;;;;;0.40;0.20;;;;;;;22.76;42.21;99999.06;5034297;28;20037;-59
2022/02/04 07:06:05;;;;;;;1.13;0.20;;;;;;;22.75;42.54;100000.97;5034935;28;20027;-59
2022/02/04 07:08:47;;;;;;;1.85;0.15;;;;;;;22.85;41.97;99989.56;5034626;28;20049;-59
2022/02/04 07:21:29;;;;;;;0.98;0.40;;;;;;;22.84;42.25;99965.94;5034741;28;20047;-59
2022/02/04 07:23:55;;;;;;;1.77;0.55;;;;;;;22.87;42.22;99970.16;5017024;28;20133;-59
2022/02/04 07:26:20;;;;;;;1.20;0.40;;;;;;;22.82;42.99;99965.31;5034495;28;20027;-59
2022/02/04 07:28:45;;;;;;;1.38;0.35;;;;;;;22.93;42.37;99967.34;5034392;28;20033;-59
2022/02/04 07:31:13;;;;;;;0.40;0.15;;;;;;;22.95;42.59;99954.25;5034463;28;20071;-59
2022/02/04 07:33:48;;;;;;;1.13;0.25;;;;;;;22.89;42.00;99946.94;5033074;28;20056;-59
2022/02/04 07:41:39;;;;;;;0.82;0.15;;;;;;;22.92;42.41;99938.25;5034001;28;20424;-59
2022/02/04 07:44:05;;;;;;;1.95;0.47;;;;;;;22.89;42.24;99927.75;5034322;28;20434;-59
2022/02/04 07:46:30;;;;;;;0.75;0.10;;;;;;;22.95;42.24;99929.59;5033688;28;20068;-59
2022/02/04 07:48:56;;;;;;;1.58;0.22;;;;;;;22.90;42.41;99918.47;5034067;28;20108;-59
2022/02/04 07:51:21;;;;;;;0.80;0.20;;;;;;;22.88;42.04;99912.38;5033950;28;20021;-59
2022/02/04 07:53:46;;;;;;;0.90;0.60;;;;;;;22.95;42.24;99904.09;5034065;28;20053;-59
2022/02/04 07:56:12;;;;;;;2.08;0.30;;;;;;;22.88;42.67;99898.66;5033897;28;20113;-59
2022/02/04 07:58:37;;;;;;;0.52;0.17;;;;;;;22.92;42.56;99899.91;5033747;28;20043;-60
2022/02/04 08:01:03;;;;;;;0.52;0.20;;;;;;;22.95;42.53;99906.81;5033827;28;20053;-59
2022/02/04 08:05:57;;;;;;;1.23;0.13;;;;;;;22.90;42.42;99896.53;5034090;28;20099;-59
2022/02/04 08:08:35;;;;;;;1.08;0.30;;;;;;;22.93;42.29;99907.06;5033655;28;20064;-59
2022/02/04 08:21:57;;;;;;;1.80;0.30;;;;;;;22.93;42.62;99933.63;5033337;28;20044;-59
2022/02/04 08:27:22;;;;;;;0.35;0.20;;;;;;;22.89;42.74;99918.69;5033676;28;20021;-59
2022/02/04 08:29:57;;;;;;;0.52;0.10;;;;;;;22.92;42.74;99915.50;5033042;28;20068;-59
2022/02/04 08:32:41;;;;;;;0.40;0.10;;;;;;;22.95;42.75;99921.38;5033075;28;20056;-59
2022/02/04 08:49:00;;;;;;;0.40;0.22;;;;;;;22.98;42.25;99907.22;5032759;28;20028;-59
2022/02/04 08:51:36;;;;;;;1.08;0.30;;;;;;;22.97;42.01;99905.53;5032840;28;20536;-59
2022/02/04 08:54:12;;;;;;;2.05;0.28;;;;;;;23.01;42.41;99909.53;5032864;28;20046;-59
2022/02/04 08:56:56;;;;;;;2.42;0.30;;;;;;;22.96;42.08;99901.13;5032588;28;20112;-59
2022/02/04 09:02:05;;;;;;;0.73;0.20;;;;;;;22.98;42.08;99868.84;5032821;28;20469;-59
2022/02/04 09:04:44;;;;;;;0.50;0.20;;;;;;;22.98;41.95;99860.63;5032620;28;20464;-59
2022/02/04 09:07:12;;;;;;;0.90;0.22;;;;;;;22.97;42.81;99839.75;5032740;28;20057;-59
2022/02/04 09:20:46;;;;;;;1.73;0.22;;;;;;;22.97;42.48;99839.75;5010140;28;20088;-59
2022/02/04 09:23:11;;;;;;;1.75;0.30;;;;;;;22.96;42.36;99835.34;5010344;28;20064;-59
2022/02/04 09:25:37;;;;;;;0.90;0.20;;;;;;;22.99;42.12;99840.38;5010168;28;20425;-59
2022/02/04 09:28:03;;;;;;;1.55;0.57;;;;;;;23.01;42.39;99826.44;5010384;28;20386;-59
2022/02/04 09:30:29;;;;;;;0.50;0.28;;;;;;;22.99;42.99;99823.91;5006674;28;20109;-59
2022/02/04 09:32:54;;;;;;;1.77;0.10;;;;;;;23.01;42.59;99824.56;5001405;28;20468;-59
2022/02/04 09:35:22;;;;;;;0.28;0.20;;;;;;;23.01;42.10;99821.81;5010128;28;20125;-59
2022/02/04 09:37:48;;;;;;;2.50;0.40;;;;;;;22.97;42.94;99823.31;5010065;28;20497;-59
2022/02/04 09:40:15;;;;;;;0.80;0.30;;;;;;;22.99;42.58;99817.59;5010316;28;20056;-59
2022/02/04 09:42:42;;;;;;;0.40;0.20;;;;;;;22.98;42.11;99819.50;5009986;28;20508;-59
2022/02/04 09:45:10;;;;;;;1.17;0.22;;;;;;;23.02;42.72;99823.50;5010167;28;20460;-59
2022/02/04 09:47:37;;;;;;;1.88;0.20;;;;;;;23.01;42.18;99816.34;5009946;28;20045;-59
2022/02/04 09:50:13;;;;;;;1.38;0.30;;;;;;;22.98;42.32;99810.44;5010284;28;20100;-59
2022/02/04 10:12:38;;;;;;;1.80;0.17;;;;;;;23.02;42.86;99784.28;4917138;29;20134;-59
2022/02/04 10:18:02;;;;;;;1.33;0.30;;;;;;;23.07;42.63;99771.56;4916981;29;20396;-59
2022/02/04 10:20:27;;;;;;;1.35;0.28;;;;;;;23.05;42.13;99773.69;4916886;29;20036;-59
2022/02/04 10:22:53;;;;;;;1.08;0.20;;;;;;;23.05;42.63;99762.72;4916697;29;20050;-59
2022/02/04 10:25:18;;;;;;;1.13;0.30;;;;;;;23.06;42.49;99758.91;4916927;29;20047;-59
2022/02/04 10:27:47;;;;;;;1.88;0.32;;;;;;;23.07;42.20;99749.63;4916812;29;20306;-59
2022/02/04 10:30:14;;;;;;;0.55;0.17;;;;;;;23.09;42.28;99752.97;4916956;29;20507;-59
2022/02/04 10:32:42;;;;;;;2.92;0.38;;;;;;;23.02;42.92;99741.25;4916214;29;20040;-59
2022/02/04 10:35:17;;;;;;;1.08;0.20;;;;;;;23.08;42.90;99743.09;4916687;29;20135;-59
2022/02/04 10:37:56;;;;;;;1.10;0.30;;;;;;;23.04;42.63;99738.28;4916560;29;20532;-59
2022/02/04 10:40:43;;;;;;;1.95;0.30;;;;;;;23.05;43.15;99738.06;4931558;29;20231;-59
2022/02/04 10:43:27;;;;;;;0.68;0.20;;;;;;;23.02;42.93;99730.31;4954753;29;20122;-59
2022/02/04 10:46:02;;;;;;;0.50;0.20;;;;;;;23.07;42.25;99722.22;4954834;29;20034;-59
2022/02/04 10:48:51;;;;;;;1.13;0.20;;;;;;;23.08;42.62;99723.06;4985723;28;20029;-59
2022/02/04 10:54:21;;;;;;;1.88;0.30;;;;;;;23.05;42.79;99696.09;5035016;28;20184;-59
2022/02/04 10:57:00;;;;;;;0.95;0.10;;;;;;;23.04;42.86;99686.22;5034718;28;20045;-59
2022/02/04 11:04:29;;;;;;;0.98;0.30;;;;;;;23.08;42.45;99680.03;5032864;28;20103;-59
2022/02/04 11:37:00;;;;;;;2.38;0.52;;;;;;;23.08;42.28;99627.94;5032309;28;20021;-59
2022/02/04 11:52:09;;;;;;;1.45;0.10;;;;;;;23.08;42.90;99597.81;4980430;28;20027;-59
2022/02/04 11:54:43;;;;;;;0.88;0.15;;;;;;;23.14;42.35;99595.19;4974118;28;20053;-60
2022/02/04 11:57:10;;;;;;;1.55;0.30;;;;;;;23.10;42.64;99598.41;4974869;28;20202;-60
2022/02/04 11:59:47;;;;;;;0.80;0.30;;;;;;;23.11;42.74;99594.59;4978491;28;20482;-59
2022/02/04 12:02:27;;;;;;;1.00;0.30;;;;;;;23.08;43.00;99586.84;4977315;28;20030;-59
2022/02/04 12:05:07;;;;;;;0.32;0.10;;;;;;;23.10;42.41;99583.88;4975164;28;20042;-59
2022/02/04 12:08:16;;;;;;;0.57;0.22;;;;;;;23.10;43.12;99579.22;4981052;28;20077;-60
2022/02/04 12:10:43;;;;;;;0.47;0.20;;;;;;;23.11;42.12;99589.09;4984477;28;20101;-59
2022/02/04 12:13:09;;;;;;;0.95;0.20;;;;;;;23.11;42.74;99578.16;4984683;28;20038;-59
2022/02/04 12:15:42;;;;;;;1.17;0.30;;;;;;;23.11;42.92;99583.63;4972230;28;20031;-59
2022/02/04 12:18:32;;;;;;;1.02;0.30;;;;;;;23.10;42.75;99573.72;4972627;28;20795;-59
2022/02/04 12:21:01;;;;;;;1.67;0.30;;;;;;;23.06;42.79;99572.53;4952540;28;20042;-59
2022/02/04 12:23:29;;;;;;;0.88;0.40;;;;;;;23.10;42.19;99579.22;4952703;29;20042;-59
2022/02/04 12:25:56;;;;;;;0.95;0.20;;;;;;;23.11;42.41;99561.69;4936893;29;20031;-59
2022/02/04 12:28:45;;;;;;;1.60;0.40;;;;;;;23.13;42.77;99561.47;4936818;29;20066;-59
2022/02/04 12:31:26;;;;;;;0.77;0.20;;;;;;;23.13;42.92;99558.72;4952641;29;20074;-59
2022/02/04 12:34:15;;;;;;;1.95;0.52;;;;;;;23.06;42.48;99561.56;4952800;29;20031;-59
2022/02/04 12:36:45;;;;;;;2.80;0.70;;;;;;;23.10;42.71;99551.81;4952401;29;20037;-59
2022/02/04 12:39:15;;;;;;;0.82;0.22;;;;;;;23.14;42.96;99543.94;4952359;29;20039;-59
2022/02/04 12:41:56;;;;;;;1.70;0.30;;;;;;;23.11;43.00;99548.00;4951723;29;20045;-59
2022/02/04 12:44:24;;;;;;;0.40;0.10;;;;;;;23.10;42.69;99543.56;4952483;29;20039;-59
2022/02/04 12:46:54;;;;;;;0.68;0.20;;;;;;;23.14;43.13;99532.97;4952522;29;20027;-59
2022/02/04 12:49:22;;;;;;;1.52;0.43;;;;;;;23.16;42.59;99533.56;4951965;29;20027;-59
2022/02/04 12:51:58;;;;;;;2.47;0.52;;;;;;;23.13;43.09;99533.22;4936292;29;20138;-59
2022/02/04 12:54:30;;;;;;;1.17;0.30;;;;;;;23.13;43.21;99530.47;4952128;29;20123;-59
2022/02/04 13:11:02;;;;;;;1.33;0.10;;;;;;;23.19;44.15;99471.97;5033106;28;19913;-60
2022/02/04 13:13:33;;;;;;;0.35;0.10;;;;;;;23.20;44.77;99479.13;5032517;28;20033;-58
2022/02/04 13:15:59;;;;;;;0.85;0.00;;;;;;;23.22;44.30;99472.34;5032697;28;20024;-59
2022/02/04 13:18:25;;;;;;;0.50;0.20;;;;;;;23.22;44.22;99463.28;5032406;28;20029;-60
2022/02/04 13:20:56;;;;;;;0.30;0.20;;;;;;;23.21;44.24;99469.84;5032315;28;20036;-59
2022/02/04 13:23:23;;;;;;;0.00;0.00;;;;;;;23.22;45.26;99463.28;5032344;28;20041;-59
2022/02/04 13:25:56;;;;;;;0.57;0.22;;;;;;;23.24;45.11;99464.72;5032602;28;20025;-59
2022/02/04 13:28:27;;;;;;;0.40;0.00;;;;;;;23.23;44.72;99459.47;5032378;28;20052;-60
2022/02/04 13:31:00;;;;;;;1.15;0.10;;;;;;;23.25;44.58;99455.41;5031442;28;20429;-59
2022/02/04 13:33:28;;;;;;;0.52;0.30;;;;;;;23.22;44.56;99457.81;5029531;28;20057;-59
2022/02/04 13:36:32;;;;;;;0.22;0.10;;;;;;;23.25;44.42;99466.38;5025247;28;20033;-60
2022/02/04 13:39:54;;;;;;;0.82;0.20;;;;;;;23.27;44.38;99468.88;5030266;28;20075;-59
2022/02/04 13:44:54;;;;;;;0.30;0.08;;;;;;;23.27;44.75;99464.22;5028223;28;20068;-59
2022/02/04 14:01:11;;;;;;;0.73;0.10;;;;;;;23.28;46.27;99432.16;5026413;28;20518;-60
2022/02/04 14:03:44;;;;;;;9.70;0.38;;;;;;;23.12;46.71;99430.97;5026747;28;20037;-60
2022/02/04 14:06:17;;;;;;;7.07;0.90;;;;;;;23.29;46.26;99440.16;5017407;28;20025;-61
2022/02/04 14:08:58;;;;;;;3.17;0.22;;;;;;;23.23;46.44;99432.06;5021454;28;20543;-59
2022/02/04 14:11:37;;;;;;;1.27;0.20;;;;;;;23.26;47.21;99423.34;5025774;28;20025;-60
2022/02/04 14:14:10;;;;;;;0.32;0.10;;;;;;;23.31;47.02;99420.72;5034624;28;20041;-60
2022/02/04 14:16:38;;;;;;;0.15;0.05;;;;;;;23.30;46.79;99413.56;5025205;28;20030;-60
2022/02/04 14:19:05;;;;;;;1.80;0.10;;;;;;;23.31;46.72;99417.97;5011208;28;20112;-59
2022/02/04 14:21:31;;;;;;;1.38;0.08;;;;;;;23.24;45.86;99414.53;5029970;28;20029;-59
2022/02/04 14:24:00;;;;;;;0.90;0.10;;;;;;;23.19;46.60;99411.69;5046983;28;20033;-60
2022/02/04 14:26:29;;;;;;;0.68;0.10;;;;;;;23.26;46.93;99406.91;5042936;28;20032;-58
2022/02/04 14:29:17;;;;;;;0.75;0.50;;;;;;;23.32;46.85;99405.94;5031645;28;20108;-59
2022/02/04 14:32:08;;;;;;;0.17;0.00;;;;;;;23.30;46.29;99408.09;5030948;28;20029;-60
2022/02/04 14:35:13;;;;;;;0.15;0.00;;;;;;;23.26;46.30;99390.44;5025738;28;20025;-59
2022/02/04 14:37:53;;;;;;;0.45;0.13;;;;;;;23.16;47.51;99391.03;5020750;28;20045;-59
2022/02/04 14:54:01;;;;;;;0.73;0.15;;;;;;;23.63;45.63;99386.41;5025693;28;20501;-59
2022/02/04 15:01:57;;;;;;;0.55;0.20;;;;;;;23.67;44.63;99376.59;5045578;28;20472;-62
2022/02/04 15:04:39;;;;;;;1.23;0.10;;;;;;;23.67;44.68;99375.75;5038456;28;20480;-61
2022/02/04 15:07:06;;;;;;;1.23;0.28;;;;;;;23.76;44.94;99368.84;5036983;28;20495;-62
2022/02/04 15:09:32;;;;;;;3.88;0.32;;;;;;;23.78;44.47;99366.69;5051255;28;20388;-61
2022/02/04 15:11:58;;;;;;;2.70;0.50;;;;;;;23.87;45.01;99364.41;5045541;28;20432;-60
2022/02/04 15:14:23;;;;;;;3.28;0.40;;;;;;;23.93;44.51;99355.19;5020890;28;20026;-61
2022/02/04 15:16:48;;;;;;;2.75;0.40;;;;;;;23.92;44.73;99357.09;5037900;28;20029;-60
2022/02/04 15:19:13;;;;;;;2.90;0.25;;;;;;;23.91;44.82;99354.59;5030606;28;20032;-60
2022/02/04 15:21:42;;;;;;;1.00;0.10;;;;;;;23.94;44.67;99337.66;5040366;28;20029;-62
2022/02/04 15:24:09;;;;;;;1.65;0.30;;;;;;;23.99;45.09;99343.22;5037864;28;20468;-60
2022/02/04 15:26:35;;;;;;;1.15;0.43;;;;;;;23.98;44.85;99341.56;5037745;28;20070;-58
2022/02/04 15:29:05;;;;;;;0.50;0.20;;;;;;;23.99;45.34;99335.00;5024195;28;20112;-61
2022/02/04 15:34:02;;;;;;;0.60;0.20;;;;;;;;;;5018952;28;20034;-60
2022/02/04 15:36:33;;;;;;;0.80;0.17;;;;;;;24.11;44.50;99326.72;5026309;28;20052;-61
2022/02/04 15:39:00;;;;;;;2.13;0.20;;;;;;;24.18;45.00;99332.88;5016482;28;20033;-62
2022/02/04 15:41:27;;;;;;;1.38;0.20;;;;;;;24.23;44.92;99330.25;5022747;28;20029;-61
2022/02/04 15:43:58;;;;;;;10.20;0.75;;;;;;;24.22;44.82;99321.19;5027816;28;20033;-62
2022/02/04 15:54:40;;;;;;;0.73;0.20;;;;;;;24.22;43.20;99312.94;5022160;28;20045;-63
2022/02/04 16:00:28;;;;;;;2.65;0.60;;;;;;;24.26;43.59;99319.59;5017259;28;20021;-62
2022/02/04 16:05:26;;;;;;;1.65;0.20;;;;;;;24.28;43.96;99306.47;5019380;28;20025;-59
2022/02/04 16:07:52;;;;;;;0.95;0.40;;;;;;;24.27;43.96;99302.06;5013075;28;20101;-62
2022/02/04 16:12:54;;;;;;;2.22;0.38;;;;;;;24.25;44.00;99301.47;5026572;28;20029;-60
2022/02/04 16:18:15;;;;;;;1.92;0.30;;;;;;;24.30;43.23;99300.75;4997443;28;20034;-62
2022/02/04 16:23:29;;;;;;;2.55;0.60;;;;;;;24.32;43.76;99295.84;4991603;28;20038;-62
2022/02/04 16:28:41;;;;;;;1.60;0.10;;;;;;;24.32;43.82;99287.59;4964582;28;20303;-61
2022/02/04 16:31:09;;;;;;;3.28;0.43;;;;;;;24.37;43.99;99284.97;4971028;28;20078;-62
2022/02/04 16:33:34;;;;;;;0.70;0.20;;;;;;;24.35;44.42;99289.00;4969932;28;20067;-64
2022/02/04 16:36:04;;;;;;;2.00;0.63;;;;;;;24.27;44.21;99282.81;4971851;28;20077;-62
2022/02/04 16:38:30;;;;;;;6.60;0.40;;;;;;;24.23;43.82;99287.16;4969896;28;20467;-62
2022/02/04 16:41:03;;;;;;;2.17;0.20;;;;;;;24.25;43.91;99285.00;4970509;28;20121;-62
2022/02/04 16:43:29;;;;;;;0.57;0.28;;;;;;;24.21;43.82;99283.81;4970398;28;20418;-63
2022/02/04 16:45:55;;;;;;;2.05;0.35;;;;;;;24.19;44.21;99269.53;4971311;28;20062;-62
2022/02/04 16:48:20;;;;;;;0.95;0.20;;;;;;;24.11;44.09;99267.16;4971591;28;20090;-63
2022/02/04 16:50:46;;;;;;;5.90;0.52;;;;;;;24.01;44.64;99266.97;4971660;28;20035;-62
2022/02/04 16:53:12;;;;;;;0.85;0.30;;;;;;;23.98;44.52;99272.94;4971473;28;20047;-63
2022/02/04 16:55:37;;;;;;;1.00;0.10;;;;;;;23.95;44.21;99266.03;4971444;28;20431;-63
2022/02/04 16:58:02;;;;;;;1.02;0.20;;;;;;;23.96;44.11;99275.09;4964214;28;20475;-62
2022/02/04 17:00:27;;;;;;;0.70;0.20;;;;;;;23.96;44.07;99266.88;4952006;29;20055;-62
2022/02/04 17:02:56;;;;;;;0.88;0.22;;;;;;;23.94;44.50;99267.13;4952380;29;20035;-63
2022/02/04 17:05:25;;;;;;;0.22;0.10;;;;;;;23.95;44.74;99270.69;4972395;28;20034;-62
2022/02/04 17:07:55;;;;;;;2.13;0.63;;;;;;;23.89;44.70;99257.97;5013046;28;20022;-63
2022/02/04 17:10:32;;;;;;;1.58;0.40;;;;;;;23.83;44.28;99261.69;5012792;28;20017;-62
2022/02/04 17:13:00;;;;;;;1.98;0.50;;;;;;;23.84;44.76;99263.34;5012798;28;20426;-63
2022/02/04 17:15:30;;;;;;;0.43;0.13;;;;;;;23.84;44.36;99260.59;5012760;28;20040;-62
2022/02/04 17:17:56;;;;;;;2.75;0.40;;;;;;;23.79;44.25;99249.53;5012630;28;20106;-63
2022/02/04 17:20:23;;;;;;;1.15;0.10;;;;;;;23.80;44.76;99254.78;5012682;28;20080;-63
2022/02/04 17:22:48;;;;;;;1.05;0.40;;;;;;;23.72;44.83;99252.44;5012650;28;20036;-62
2022/02/04 17:25:14;;;;;;;1.80;0.47;;;;;;;23.76;45.11;99248.13;5012681;28;20025;-63
2022/02/04 17:27:43;;;;;;;0.85;0.10;;;;;;;23.71;45.13;99250.78;5001459;28;20100;-62
2022/02/04 17:30:10;;;;;;;1.65;0.20;;;;;;;23.67;44.17;99238.59;5032192;28;20041;-62
2022/02/04 17:32:39;;;;;;;1.30;0.32;;;;;;;23.67;44.87;99242.19;5032086;28;20371;-63
2022/02/04 17:35:05;;;;;;;1.17;0.20;;;;;;;23.65;43.98;99241.59;5032232;28;20025;-63
2022/02/04 17:37:31;;;;;;;1.48;0.30;;;;;;;23.63;44.21;99229.19;5032042;28;20095;-63
2022/02/04 17:39:57;;;;;;;1.02;0.20;;;;;;;23.65;43.59;99230.63;5032241;28;20465;-63
2022/02/04 17:42:24;;;;;;;1.30;0.47;;;;;;;23.64;44.43;99228.13;5032228;28;20033;-62
2022/02/04 17:44:51;;;;;;;0.55;0.10;;;;;;;23.64;43.64;99226.22;5032145;28;20026;-63
2022/02/04 17:47:17;;;;;;;0.85;0.57;;;;;;;23.63;43.57;99216.31;5014379;28;20481;-63
2022/02/04 17:49:52;;;;;;;1.48;0.20;;;;;;;23.63;43.56;99224.53;5031921;28;20029;-63
2022/02/04 17:52:25;;;;;;;1.27;0.38;;;;;;;23.61;43.69;99213.00;5031991;28;20033;-63
2022/02/04 17:54:59;;;;;;;0.65;0.13;;;;;;;23.63;43.57;99210.00;5031889;28;20045;-63
2022/02/04 17:57:44;;;;;;;1.38;0.20;;;;;;;23.57;43.59;99206.34;5031908;28;20377;-62
2022/02/04 18:05:40;;;;;;;1.70;0.20;;;;;;;23.57;43.49;99195.38;5032184;28;20029;-62